Time;durP1;ratioP1;P1;durP2;ratioP2;P2;SDS_P1;SDS_P2;PMS_P1;PMS_P2;Temp;Humidity;BMP_temperature;BMP_pressure;BME280_temperature;BME280_humidity;BME280_pressure;Samples;Min_cycle;Max_cycle;Signal;HPM_P1;HPM_P2
2022/04/11 00:01:19;;;;;;;8.20;6.13;;;;;;;;;;5131948;27;20522;-71
2022/04/11 00:03:47;;;;;;;8.93;6.40;;;;;;;;;;5126895;27;20475;-70
2022/04/11 00:06:14;;;;;;;7.57;5.53;;;;;;;;;;5106028;27;20446;-71
2022/04/11 00:08:41;;;;;;;12.40;5.90;;;;;;;;;;5130301;27;20454;-71
2022/04/11 00:11:08;;;;;;;7.30;6.50;;;;;;;;;;5126582;27;20443;-70
2022/04/11 00:13:35;;;;;;;10.57;6.47;;;;;;;;;;5117788;27;20760;-70
2022/04/11 00:16:03;;;;;;;7.63;5.30;;;;;;;;;;5132850;27;20438;-70
2022/04/11 00:18:32;;;;;;;8.47;5.77;;;;;;;;;;5126180;27;20449;-70
2022/04/11 00:20:59;;;;;;;8.97;6.30;;;;;;;;;;5132878;27;20534;-70
2022/04/11 00:23:26;;;;;;;13.30;6.93;;;;;;;;;;5130032;27;20474;-70
2022/04/11 00:25:53;;;;;;;6.37;5.63;;;;;;;;;;5133454;27;20453;-69
2022/04/11 00:28:21;;;;;;;8.30;5.50;;;;;;;;;;5130820;27;20903;-70
2022/04/11 00:30:48;;;;;;;8.70;5.50;;;;;;;;;;5132346;27;20790;-71
2022/04/11 00:33:15;;;;;;;6.37;5.63;;;;;;;;;;5126631;27;20478;-69
2022/04/11 00:35:43;;;;;;;10.30;6.73;;;;;;;;;;5121212;27;20511;-69
2022/04/11 00:38:11;;;;;;;7.30;6.47;;;;;;;;;;5118442;27;20541;-68
2022/04/11 00:40:38;;;;;;;7.77;5.60;;;;;;;;;;5131605;27;20473;-70
2022/04/11 00:43:05;;;;;;;6.53;5.70;;;;;;;;;;5111124;27;20474;-69
2022/04/11 00:45:32;;;;;;;10.63;5.90;;;;;;;;;;5132080;27;20451;-70
2022/04/11 00:47:59;;;;;;;6.10;5.13;;;;;;;;;;5131881;27;20448;-70
2022/04/11 00:50:27;;;;;;;8.73;5.33;;;;;;;;;;5114578;27;20459;-70
2022/04/11 00:52:56;;;;;;;7.17;5.40;;;;;;;;;;5129285;27;20489;-70
2022/04/11 00:55:24;;;;;;;8.37;6.20;;;;;;;;;;5131244;27;20525;-69
2022/04/11 00:57:52;;;;;;;6.50;5.90;;;;;;;;;;5128285;27;20529;-70
2022/04/11 01:00:20;;;;;;;7.83;7.00;;;;;;;;;;5130808;27;20475;-70
2022/04/11 01:02:47;;;;;;;6.23;5.53;;;;;;;;;;5127802;27;20977;-70
2022/04/11 01:05:14;;;;;;;7.03;6.07;;;;;;;;;;5124009;27;20898;-70
2022/04/11 01:07:42;;;;;;;8.67;5.87;;;;;;;;;;5131386;27;20545;-70
2022/04/11 01:10:11;;;;;;;10.33;6.70;;;;;;;;;;5120428;27;20512;-69
2022/04/11 01:12:38;;;;;;;7.03;6.33;;;;;;;;;;5130444;27;20447;-69
2022/04/11 01:15:06;;;;;;;10.70;7.20;;;;;;;;;;5125396;27;20542;-69
2022/04/11 01:17:34;;;;;;;9.40;7.10;;;;;;;;;;5124605;27;20443;-69
2022/04/11 01:20:01;;;;;;;11.53;7.00;;;;;;;;;;5131459;27;20803;-70
2022/04/11 01:22:29;;;;;;;6.97;6.27;;;;;;;;;;5130299;27;20446;-70
2022/04/11 01:24:56;;;;;;;13.40;6.93;;;;;;;;;;5131625;27;21039;-69
2022/04/11 01:27:24;;;;;;;7.47;6.37;;;;;;;;;;5122257;27;20840;-69
2022/04/11 01:29:51;;;;;;;6.60;5.90;;;;;;;;;;5119306;27;20483;-69
2022/04/11 01:32:18;;;;;;;7.90;6.97;;;;;;;;;;5126497;27;20804;-69
2022/04/11 01:34:45;;;;;;;8.43;6.20;;;;;;;;;;5126830;27;20453;-69
2022/04/11 01:37:12;;;;;;;8.03;6.00;;;;;;;;;;5113547;27;20496;-69
2022/04/11 01:39:41;;;;;;;7.90;6.50;;;;;;;;;;5131273;27;20539;-69
2022/04/11 01:42:08;;;;;;;6.87;6.17;;;;;;;;;;5114591;28;20523;-69
2022/04/11 01:44:35;;;;;;;7.10;5.73;;;;;;;;;;5126978;27;20480;-69
2022/04/11 01:47:03;;;;;;;8.77;7.83;;;;;;;;;;5119792;27;20450;-70
2022/04/11 01:49:30;;;;;;;7.43;6.40;;;;;;;;;;5126903;27;20881;-69
2022/04/11 01:51:57;;;;;;;6.40;5.80;;;;;;;;;;5130775;27;20457;-70
2022/04/11 01:54:24;;;;;;;12.03;6.20;;;;;;;;;;5130842;28;20797;-69
2022/04/11 01:56:53;;;;;;;11.27;7.33;;;;;;;;;;5124862;27;20439;-70
2022/04/11 01:59:20;;;;;;;6.93;6.13;;;;;;;;;;5127230;28;20469;-70
2022/04/11 02:01:47;;;;;;;8.40;5.67;;;;;;;;;;5130448;27;20499;-70
2022/04/11 02:04:14;;;;;;;12.43;7.07;;;;;;;;;;5120426;28;20780;-70
2022/04/11 02:06:41;;;;;;;11.67;7.00;;;;;;;;;;5124362;27;20515;-70
2022/04/11 02:09:09;;;;;;;7.40;6.53;;;;;;;;;;5115452;28;20454;-70
2022/04/11 02:11:36;;;;;;;9.53;6.80;;;;;;;;;;5124527;27;20996;-69
2022/04/11 02:14:04;;;;;;;8.93;6.93;;;;;;;;;;5131289;28;20534;-70
2022/04/11 02:16:32;;;;;;;7.10;6.40;;;;;;;;;;5131170;27;20522;-69
2022/04/11 02:18:59;;;;;;;7.00;5.63;;;;;;;;;;5129265;28;20880;-70
2022/04/11 02:21:26;;;;;;;7.40;6.37;;;;;;;;;;5112979;28;20448;-69
2022/04/11 02:23:53;;;;;;;10.77;6.73;;;;;;;;;;5124129;28;20502;-69
2022/04/11 02:26:20;;;;;;;10.57;7.00;;;;;;;;;;5131073;27;20522;-69
2022/04/11 02:28:47;;;;;;;8.63;6.90;;;;;;;;;;5118081;27;20439;-70
2022/04/11 02:31:16;;;;;;;8.00;6.40;;;;;;;;;;5127078;27;20532;-69
2022/04/11 02:33:43;;;;;;;7.90;7.07;;;;;;;;;;5123309;28;20447;-69
2022/04/11 02:36:10;;;;;;;6.80;6.10;;;;;;;;;;5113665;28;20447;-68
2022/04/11 02:38:37;;;;;;;11.50;6.30;;;;;;;;;;5117194;28;20550;-70
2022/04/11 02:41:04;;;;;;;9.20;6.43;;;;;;;;;;5125914;27;20438;-69
2022/04/11 02:43:31;;;;;;;8.73;6.47;;;;;;;;;;5135163;27;20488;-69
2022/04/11 02:45:59;;;;;;;7.70;6.73;;;;;;;;;;5127801;27;20449;-69
2022/04/11 02:48:27;;;;;;;7.73;6.90;;;;;;;;;;5127283;27;20559;-69
2022/04/11 02:50:54;;;;;;;8.83;6.77;;;;;;;;;;5135313;27;20561;-70
2022/04/11 02:53:21;;;;;;;6.97;6.23;;;;;;;;;;5129535;27;21006;-70
2022/04/11 02:55:49;;;;;;;8.40;6.57;;;;;;;;;;5123299;27;20481;-70
2022/04/11 02:58:16;;;;;;;8.80;6.53;;;;;;;;;;5132424;27;20447;-69
2022/04/11 03:00:43;;;;;;;7.37;6.03;;;;;;;;;;5134626;27;20446;-70
2022/04/11 03:03:11;;;;;;;11.10;7.20;;;;;;;;;;5129324;27;20454;-69
2022/04/11 03:05:39;;;;;;;10.93;7.17;;;;;;;;;;5126843;27;20447;-69
2022/04/11 03:08:07;;;;;;;11.23;7.57;;;;;;;;;;5127350;27;20493;-69
2022/04/11 03:10:34;;;;;;;9.00;6.27;;;;;;;;;;5134782;27;20457;-69
2022/04/11 03:13:01;;;;;;;7.90;5.97;;;;;;;;;;5130360;27;20446;-69
2022/04/11 03:15:28;;;;;;;10.80;7.20;;;;;;;;;;5134123;27;20511;-69
2022/04/11 03:17:55;;;;;;;10.40;7.20;;;;;;;;;;5129162;27;20443;-69
2022/04/11 03:20:23;;;;;;;10.10;6.20;;;;;;;;;;5131118;27;20499;-69
2022/04/11 03:22:51;;;;;;;8.43;7.13;;;;;;;;;;5131201;27;20443;-69
2022/04/11 03:25:18;;;;;;;7.57;6.77;;;;;;;;;;5123116;27;20481;-69
2022/04/11 03:27:45;;;;;;;8.63;6.67;;;;;;;;;;5127810;27;20443;-69
2022/04/11 03:30:13;;;;;;;7.30;6.60;;;;;;;;;;5124982;27;20439;-69
2022/04/11 03:32:40;;;;;;;8.90;6.43;;;;;;;;;;5126633;27;20461;-69
2022/04/11 03:35:09;;;;;;;9.60;8.43;;;;;;;;;;5130270;27;20454;-69
2022/04/11 03:37:36;;;;;;;7.70;6.90;;;;;;;;;;5123496;27;20476;-69
2022/04/11 03:40:07;;;;;;;8.43;6.23;;;;;;;;;;5122913;27;20967;-69
2022/04/11 03:42:35;;;;;;;11.83;6.70;;;;;;;;;;5122156;27;20479;-70
2022/04/11 03:45:02;;;;;;;12.07;7.97;;;;;;;;;;5130430;27;20490;-69
2022/04/11 03:47:29;;;;;;;7.30;6.57;;;;;;;;;;5133371;27;20441;-69
2022/04/11 03:49:56;;;;;;;7.40;6.33;;;;;;;;;;5132481;27;20539;-69
2022/04/11 03:52:24;;;;;;;8.73;7.83;;;;;;;;;;5119897;27;21132;-70
2022/04/11 03:54:51;;;;;;;7.97;6.57;;;;;;;;;;5133326;27;20449;-69
2022/04/11 03:57:19;;;;;;;9.10;6.60;;;;;;;;;;5120435;27;20456;-69
2022/04/11 03:59:46;;;;;;;9.77;6.60;;;;;;;;;;5119731;27;21016;-69
2022/04/11 04:02:14;;;;;;;8.63;6.77;;;;;;;;;;5133020;27;20451;-69
2022/04/11 04:04:41;;;;;;;8.80;7.17;;;;;;;;;;5126588;27;20565;-69
2022/04/11 04:07:08;;;;;;;11.10;6.63;;;;;;;;;;5132834;27;20554;-69
2022/04/11 04:09:35;;;;;;;10.73;7.20;;;;;;;;;;5126561;27;20950;-70
2022/04/11 04:12:02;;;;;;;7.77;6.77;;;;;;;;;;5133739;27;20443;-70
2022/04/11 04:14:31;;;;;;;9.33;7.13;;;;;;;;;;5133345;27;20457;-70
2022/04/11 04:16:58;;;;;;;11.67;8.10;;;;;;;;;;5130935;27;20445;-70
2022/04/11 04:19:25;;;;;;;10.23;7.07;;;;;;;;;;5123223;27;20899;-70
2022/04/11 04:21:52;;;;;;;11.83;6.90;;;;;;;;;;5116639;27;20869;-68
2022/04/11 04:24:22;;;;;;;10.27;7.27;;;;;;;;;;5132708;27;20482;-68
2022/04/11 04:26:49;;;;;;;7.23;6.50;;;;;;;;;;5129007;27;20447;-70
2022/04/11 04:29:16;;;;;;;8.23;6.47;;;;;;;;;;5132270;27;20446;-70
2022/04/11 04:31:47;;;;;;;8.97;7.23;;;;;;;;;;5133033;27;20455;-71
2022/04/11 04:34:14;;;;;;;8.43;7.60;;;;;;;;;;5131940;27;20514;-69
2022/04/11 04:36:42;;;;;;;8.80;7.47;;;;;;;;;;5129196;27;20450;-71
2022/04/11 04:39:09;;;;;;;7.50;6.67;;;;;;;;;;5120983;27;20478;-71
2022/04/11 04:41:37;;;;;;;9.70;7.43;;;;;;;;;;5120211;27;20516;-72
2022/04/11 04:44:05;;;;;;;8.80;7.53;;;;;;;;;;5126395;27;20540;-70
2022/04/11 04:46:33;;;;;;;11.63;7.27;;;;;;;;;;5130453;27;20491;-71
2022/04/11 04:49:01;;;;;;;8.70;6.83;;;;;;;;;;5132601;27;20465;-71
2022/04/11 04:51:29;;;;;;;8.90;7.33;;;;;;;;;;5115837;27;20447;-72
2022/04/11 04:53:56;;;;;;;8.77;7.37;;;;;;;;;;5124275;27;20451;-72
2022/04/11 04:56:24;;;;;;;7.53;6.83;;;;;;;;;;5131784;27;20538;-71
2022/04/11 04:58:51;;;;;;;9.83;6.87;;;;;;;;;;5131914;27;20525;-71
2022/04/11 05:01:19;;;;;;;11.60;8.37;;;;;;;;;;5126769;27;20440;-70
2022/04/11 05:03:46;;;;;;;8.30;6.50;;;;;;;;;;5117363;27;20530;-70
2022/04/11 05:06:14;;;;;;;13.53;8.70;;;;;;;;;;5131722;27;20523;-73
2022/04/11 05:08:42;;;;;;;10.37;7.73;;;;;;;;;;5132361;27;20904;-71
2022/04/11 05:11:09;;;;;;;10.87;7.60;;;;;;;;;;5104542;27;20442;-71
2022/04/11 05:13:36;;;;;;;9.67;6.80;;;;;;;;;;5132255;27;20446;-71
2022/04/11 05:16:03;;;;;;;7.87;7.07;;;;;;;;;;5132230;27;21128;-73
2022/04/11 05:18:30;;;;;;;7.57;6.77;;;;;;;;;;5132331;27;20534;-72
2022/04/11 05:20:57;;;;;;;8.40;7.40;;;;;;;;;;5131954;27;20447;-71
2022/04/11 05:23:26;;;;;;;9.07;7.97;;;;;;;;;;5131544;27;20804;-71
2022/04/11 05:25:55;;;;;;;7.37;6.57;;;;;;;;;;5132258;27;20566;-73
2022/04/11 05:28:22;;;;;;;9.63;8.00;;;;;;;;;;5131228;27;20454;-72
2022/04/11 05:30:49;;;;;;;9.40;7.23;;;;;;;;;;5131643;27;20448;-72
2022/04/11 05:33:16;;;;;;;12.73;7.50;;;;;;;;;;5130165;27;20525;-72
2022/04/11 05:35:43;;;;;;;8.57;6.60;;;;;;;;;;5132044;27;20449;-72
2022/04/11 05:38:10;;;;;;;8.80;7.90;;;;;;;;;;5117327;27;20462;-72
2022/04/11 05:40:39;;;;;;;14.10;8.50;;;;;;;;;;5132317;27;20470;-71
2022/04/11 05:43:06;;;;;;;9.67;8.77;;;;;;;;;;5130978;27;20453;-71
2022/04/11 05:45:33;;;;;;;11.70;7.93;;;;;;;;;;5132079;27;20482;-73
2022/04/11 05:48:00;;;;;;;10.97;7.80;;;;;;;;;;5131917;27;20454;-72
2022/04/11 05:50:28;;;;;;;8.83;6.97;;;;;;;;;;5131064;27;20593;-71
2022/04/11 05:52:55;;;;;;;9.83;7.13;;;;;;;;;;5131097;27;20450;-71
2022/04/11 05:55:23;;;;;;;10.40;7.10;;;;;;;;;;5131119;27;20450;-71
2022/04/11 05:57:51;;;;;;;14.40;7.40;;;;;;;;;;5131305;27;20958;-72
2022/04/11 06:00:19;;;;;;;10.70;8.77;;;;;;;;;;5131227;27;20490;-71
2022/04/11 06:02:46;;;;;;;12.53;7.57;;;;;;;;;;5131357;27;20801;-70
2022/04/11 06:05:13;;;;;;;8.73;7.47;;;;;;;;;;5124086;27;20973;-71
2022/04/11 06:07:40;;;;;;;11.93;6.90;;;;;;;;;;5131029;27;20814;-70
2022/04/11 06:10:08;;;;;;;10.60;7.47;;;;;;;;;;5131356;27;20442;-71
2022/04/11 06:12:35;;;;;;;10.77;8.90;;;;;;;;;;5131132;27;20446;-71
2022/04/11 06:15:04;;;;;;;12.00;7.07;;;;;;;;;;5133564;27;20451;-71
2022/04/11 06:17:32;;;;;;;8.40;6.57;;;;;;;;;;5135830;27;20537;-71
2022/04/11 06:20:00;;;;;;;13.20;7.93;;;;;;;;;;5135732;27;20456;-72
2022/04/11 06:22:27;;;;;;;10.13;7.83;;;;;;;;;;5134656;27;20539;-71
2022/04/11 06:25:00;;;;;;;11.47;7.50;;;;;;;;;;5135573;27;20485;-72
2022/04/11 06:27:27;;;;;;;9.87;7.20;;;;;;;;;;5134842;27;20449;-71
2022/04/11 06:29:56;;;;;;;12.20;6.70;;;;;;;;;;5135074;27;20573;-72
2022/04/11 06:32:27;;;;;;;11.70;7.30;;;;;;;;;;5134659;27;20464;-71
2022/04/11 06:34:54;;;;;;;9.43;7.27;;;;;;;;;;5134359;27;20893;-71
2022/04/11 06:37:23;;;;;;;9.47;6.30;;;;;;;;;;5125536;27;20447;-71
2022/04/11 06:39:51;;;;;;;8.10;6.17;;;;;;;;;;5130949;27;20567;-71
2022/04/11 06:42:18;;;;;;;7.73;6.37;;;;;;;;;;5134537;27;20537;-71
2022/04/11 06:44:45;;;;;;;10.30;6.13;;;;;;;;;;5135269;27;20474;-71
2022/04/11 06:47:12;;;;;;;6.30;5.70;;;13.60;34.60;;;;;;5134406;27;20450;-71
2022/04/11 06:49:40;;;;;;;8.17;6.50;;;5.50;1.00;;;;;;5135097;27;20458;-71
2022/04/11 06:52:08;;;;;;;9.23;7.10;;;;;;;;;;5134142;27;20449;-71
2022/04/11 06:54:35;;;;;;;8.80;6.17;;;;;;;;;;5135015;27;20531;-71
2022/04/11 06:57:02;;;;;;;5.67;4.97;;;;;;;;;;5135291;27;20470;-71
2022/04/11 06:59:29;;;;;;;7.20;6.07;;;;;;;;;;5134869;27;20459;-70
2022/04/11 07:01:57;;;;;;;9.77;7.17;;;;;;;;;;5134560;27;20459;-72
2022/04/11 07:04:24;;;;;;;7.50;5.60;;;;;;;;;;5126369;27;20724;-71
2022/04/11 07:06:52;;;;;;;8.30;6.60;;;;;;;;;;5134616;27;20534;-71
2022/04/11 07:09:19;;;;;;;8.30;7.10;;;;;;;;;;5133848;27;20499;-72
2022/04/11 07:11:47;;;;;;;12.27;7.77;;;;;;;;;;5134030;27;20805;-71
2022/04/11 07:14:14;;;;;;;6.73;6.03;;;;;;;;;;5133786;27;20565;-72
2022/04/11 07:16:41;;;;;;;7.63;6.50;;;;;;;;;;5134352;27;20954;-72
2022/04/11 07:19:08;;;;;;;10.13;6.20;;;;;;;;;;5120598;27;20534;-72
2022/04/11 07:21:35;;;;;;;6.27;5.50;;;;;;;;;;5134216;27;20449;-72
2022/04/11 07:24:04;;;;;;;8.90;5.60;;;;;;;;;;5134412;27;20503;-72
2022/04/11 07:26:32;;;;;;;10.53;5.57;;;;;;;;;;5133627;27;20474;-71
2022/04/11 07:28:59;;;;;;;5.80;5.03;;;;;;;;;;5134498;27;21031;-72
2022/04/11 07:31:27;;;;;;;7.53;5.47;;;;;;;;;;5133193;27;20533;-71
2022/04/11 07:33:54;;;;;;;8.33;6.53;;;;;;;;;;5133528;27;20550;-71
2022/04/11 07:36:21;;;;;;;8.40;6.13;;;;;;;;;;5133071;27;20446;-73
2022/04/11 07:38:48;;;;;;;8.40;6.20;;;;;;;;;;5121139;27;20509;-72
2022/04/11 07:41:17;;;;;;;13.10;7.27;;;;;;;;;;5133312;27;20443;-72
2022/04/11 07:43:44;;;;;;;7.03;6.33;;;;;;;;;;5133851;27;20434;-72
2022/04/11 07:46:11;;;;;;;9.97;6.17;;;;;;;;;;5132987;27;20996;-72
2022/04/11 07:48:38;;;;;;;7.10;5.00;;;;;;;;;;5134065;27;20446;-72
2022/04/11 07:51:05;;;;;;;5.20;4.17;;;;;;;;;;5133050;27;20530;-72
2022/04/11 07:53:32;;;;;;;7.10;4.47;;;;;;;;;;5133604;27;20442;-72
2022/04/11 07:56:00;;;;;;;5.00;4.20;;;;;;;;;;5133680;27;20454;-72
2022/04/11 07:58:28;;;;;;;6.00;5.07;;;;;;;;;;5133450;27;20485;-72
2022/04/11 08:00:55;;;;;;;7.40;4.27;;;;;;;;;;5133092;27;20899;-72
2022/04/11 08:03:23;;;;;;;5.30;3.30;;;;;;;;;;5129662;27;20889;-71
2022/04/11 08:05:50;;;;;;;7.87;3.60;;;;;;;;;;5129682;27;20474;-72
2022/04/11 08:08:17;;;;;;;3.97;3.50;;;;;;;;;;5132831;27;20515;-71
2022/04/11 08:10:44;;;;;;;5.03;3.50;;;;;;;;;;5133173;27;20452;-72
2022/04/11 08:13:11;;;;;;;5.17;3.80;;;;;;;;;;5132593;27;20530;-71
2022/04/11 08:15:40;;;;;;;4.87;4.00;;;;;;;;;;5133245;27;20533;-71
2022/04/11 08:18:07;;;;;;;4.30;3.63;;;;;;;;;;5132747;27;20941;-71
2022/04/11 08:20:34;;;;;;;3.33;2.67;;;;;;;;;;5132579;27;20450;-72
2022/04/11 08:23:01;;;;;;;8.00;3.50;;;;;;;;;;5133595;27;20538;-72
2022/04/11 08:25:28;;;;;;;4.43;3.13;;;;;;;;;;5132560;27;20480;-71
2022/04/11 08:27:56;;;;;;;4.33;3.10;;;;;;;;;;5133429;27;20449;-71
2022/04/11 08:30:23;;;;;;;3.63;3.30;;;;;;;;;;5132262;27;20473;-72
2022/04/11 08:32:52;;;;;;;6.23;4.13;;;;;;;;;;5132538;27;20959;-73
2022/04/11 08:35:20;;;;;;;3.73;3.00;;;;;;;;;;5131838;27;20454;-72
2022/04/11 08:37:48;;;;;;;6.83;3.43;;;;;;;;;;5119957;27;20555;-72
2022/04/11 08:40:16;;;;;;;3.33;3.03;;;;;;;;;;5131562;27;20477;-72
2022/04/11 08:42:44;;;;;;;3.60;3.30;;;;;;;;;;5132824;27;20439;-71
2022/04/11 08:45:13;;;;;;;3.67;3.23;;;;;;;;;;5104870;27;20522;-70
2022/04/11 08:47:40;;;;;;;3.57;2.87;;;;;;;;;;5132763;27;20817;-72
2022/04/11 08:50:10;;;;;;;4.63;3.30;;;;;;;;;;5132482;27;20860;-71
2022/04/11 08:52:37;;;;;;;4.83;3.27;;;;;;;;;;5132300;27;20447;-71
2022/04/11 08:55:05;;;;;;;3.30;2.80;;;;;;;;;;5133945;27;20474;-73
2022/04/11 08:57:32;;;;;;;3.23;2.93;;;;;;;;;;5136512;27;20554;-71
2022/04/11 09:00:02;;;;;;;4.97;3.10;;;;;;;;;;5135576;27;20454;-71
2022/04/11 09:02:33;;;;;;;3.83;2.93;;;;;;;;;;5134999;27;20459;-71
2022/04/11 09:05:00;;;;;;;6.03;3.10;;;;;;;;;;5126468;27;20466;-71
2022/04/11 09:07:28;;;;;;;7.07;3.03;;;;;;;;;;5132700;27;20939;-71
2022/04/11 09:09:59;;;;;;;3.80;2.70;;;;;;;;;;5132780;27;20533;-72
2022/04/11 09:12:26;;;;;;;4.03;2.60;;;;;;;;;;5131918;27;20450;-72
2022/04/11 09:14:55;;;;;;;2.80;2.30;;;;;;;;;;5132293;27;20443;-72
2022/04/11 09:17:23;;;;;;;3.37;2.50;;;;;;;;;;5131562;27;20953;-71
2022/04/11 09:20:06;;;;;;;5.63;2.73;;;;;;;;;;5132469;27;20451;-72
2022/04/11 09:22:35;;;;;;;4.60;2.87;;;;;;;;;;5131761;27;20924;-71
2022/04/11 09:25:09;;;;;;;7.53;2.87;;;;;;;;;;5132421;27;20439;-71
2022/04/11 09:27:36;;;;;;;3.20;2.43;;;;;;;;;;5132349;27;20524;-71
2022/04/11 09:30:18;;;;;;;2.87;2.43;;;;;;;;;;5132267;27;20450;-72
2022/04/11 09:32:51;;;;;;;5.00;2.20;;;;;;;;;;5131839;27;20492;-72
2022/04/11 09:35:21;;;;;;;2.67;2.10;;;;;;;;;;5131378;27;20435;-72
2022/04/11 09:37:49;;;;;;;2.50;2.27;;;;;;;;;;5118652;27;20444;-72
2022/04/11 09:40:22;;;;;;;2.17;2.03;;;;;;;;;;5130993;27;20467;-72
2022/04/11 09:42:58;;;;;;;4.37;2.00;;;;;;;;;;5131845;27;20488;-72
2022/04/11 09:45:25;;;;;;;2.90;2.30;;;;;;;;;;5131642;27;20438;-71
2022/04/11 09:48:02;;;;;;;3.10;2.27;;;;;;;;;;5131798;27;20454;-72
2022/04/11 09:50:30;;;;;;;3.67;2.10;;;;;;;;;;5130958;27;20935;-73
2022/04/11 09:53:09;;;;;;;4.60;2.20;;;;;;;;;;5131388;27;20935;-72
2022/04/11 09:55:36;;;;;;;3.03;2.30;;;;;;;;;;5132139;27;20533;-72
2022/04/11 09:58:04;;;;;;;3.13;2.53;;;;;;;;;;5132066;27;20446;-72
2022/04/11 10:00:32;;;;;;;2.93;2.47;;;;;;;;;;5131779;27;20447;-72
2022/04/11 10:02:59;;;;;;;3.47;2.27;;;;;;;;;;5131920;27;20919;-72
2022/04/11 10:05:27;;;;;;;3.20;2.10;;;;;;;;;;5116875;28;20903;-72
2022/04/11 10:07:55;;;;;;;2.40;2.00;;;;;;;;;;5131633;27;20868;-72
2022/04/11 10:10:24;;;;;;;4.40;2.40;;;;;;;;;;5130895;27;20454;-71
2022/04/11 10:12:53;;;;;;;2.70;2.03;;;;;;;;;;5105322;28;20809;-73
2022/04/11 10:15:20;;;;;;;3.43;2.30;;;;;;;;;;5131128;27;20501;-72
2022/04/11 10:17:49;;;;;;;5.13;2.73;;;;;;;;;;5131768;27;20944;-72
2022/04/11 10:20:23;;;;;;;5.00;2.50;;;;;;;;;;5131076;27;20491;-72
2022/04/11 10:22:55;;;;;;;3.03;2.20;;;;;;;;;;5131388;27;20486;-71
2022/04/11 10:25:24;;;;;;;3.20;2.00;;;;;;;;;;5130807;27;20527;-71
2022/04/11 10:28:06;;;;;;;2.47;2.27;;;;;;;;;;5131594;27;20551;-71
2022/04/11 10:30:33;;;;;;;4.90;2.03;;;;;;;;;;5131078;27;20446;-73
2022/04/11 10:33:00;;;;;;;3.10;2.37;;;;;;;;;;5131368;27;20521;-72
2022/04/11 10:35:34;;;;;;;2.73;2.40;;;;;;;;;;5129866;28;20952;-73
2022/04/11 10:38:08;;;;;;;2.60;1.93;;;;;;;;;;5117632;27;20439;-72
2022/04/11 10:40:38;;;;;;;3.50;2.33;;;;;;;;;;5131259;27;20525;-72
2022/04/11 10:43:15;;;;;;;2.93;1.70;;;;;;;;;;5130617;27;20457;-72
2022/04/11 10:45:44;;;;;;;2.20;2.00;;;;;;;;;;5131362;27;20449;-72
2022/04/11 10:48:12;;;;;;;3.63;2.10;;;;;;;;;;5130726;27;20486;-72
2022/04/11 10:50:39;;;;;;;1.87;1.77;;;;;;;;;;5131240;27;20506;-72
2022/04/11 10:53:11;;;;;;;2.70;2.20;;;;;;;;;;5130674;27;20454;-72
2022/04/11 10:55:54;;;;;;;4.33;2.10;;;;;;;;;;5131387;27;20442;-72
2022/04/11 10:58:22;;;;;;;2.10;1.80;;;;;;;;;;5130425;27;20930;-72
2022/04/11 11:00:51;;;;;;;2.10;2.00;;;;;;;;;;5130416;27;20446;-73
2022/04/11 11:03:18;;;;;;;2.20;1.77;;;;;;;;;;5131505;27;20813;-72
2022/04/11 11:05:48;;;;;;;2.63;2.43;;;;;;;;;;5130215;27;20478;-72
2022/04/11 11:08:26;;;;;;;2.07;1.63;;;;;;;;;;5133786;27;20954;-72
2022/04/11 11:10:55;;;;;;;2.50;2.03;;;;;;;;;;5134003;27;20434;-71
2022/04/11 11:13:27;;;;;;;2.60;2.00;;;;;;;;;;5133939;27;20507;-72
2022/04/11 11:15:54;;;;;;;3.83;2.03;;;;;;;;;;5134640;27;20785;-71
2022/04/11 11:18:21;;;;;;;2.30;1.70;;;;;;;;;;5134188;27;20822;-71
2022/04/11 11:20:52;;;;;;;3.67;2.50;;;;;;;;;;5133802;27;20919;-71
2022/04/11 11:23:25;;;;;;;3.43;2.53;;;;;;;;;;5133998;27;20870;-71
2022/04/11 11:25:53;;;;;;;2.87;2.03;;;;;;;;;;5108128;27;20511;-72
2022/04/11 11:28:21;;;;;;;3.30;2.23;;;;;;;;;;5133820;27;20443;-71
2022/04/11 11:30:49;;;;;;;1.93;1.77;;;;;;;;;;5134237;27;20442;-72
2022/04/11 11:33:17;;;;;;;2.50;2.30;;;;;;;;;;5132481;27;20454;-72
2022/04/11 11:35:48;;;;;;;3.07;2.00;;;;;;;;;;5134392;27;20443;-72
2022/04/11 11:38:16;;;;;;;1.93;1.70;;;;;;;;;;5119717;27;20541;-72
2022/04/11 11:40:44;;;;;;;3.37;2.40;;;;;;;;;;5133518;27;20550;-72
2022/04/11 11:43:14;;;;;;;2.17;1.93;;;;;;;;;;5133614;27;20511;-72
2022/04/11 11:45:43;;;;;;;4.47;2.13;;;;;;;;;;5134117;27;20458;-72
2022/04/11 11:48:22;;;;;;;2.90;2.30;;;;;;;;;;5133215;27;20514;-72
2022/04/11 11:50:49;;;;;;;2.23;2.03;;;;;;;;;;5133894;27;20861;-72
2022/04/11 11:53:16;;;;;;;2.77;1.87;;;;;;;;;;5133564;27;20578;-72
2022/04/11 11:55:53;;;;;;;2.37;1.93;;;;;;;;;;5134105;27;20470;-72
2022/04/11 11:58:20;;;;;;;2.37;2.00;;;;;;;;;;5108823;27;20805;-72
2022/04/11 12:00:49;;;;;;;1.80;1.57;;;;;;;;;;5133204;27;21026;-73
2022/04/11 12:06:01;;;;;;;3.67;2.20;;;;;;;;;;5131153;27;20441;-72
2022/04/11 12:08:31;;;;;;;2.40;2.20;;;;;;;;;;5133294;27;20894;-72
2022/04/11 12:10:59;;;;;;;3.60;2.57;;;;;;;;;;5133611;27;20466;-72
2022/04/11 12:13:27;;;;;;;2.50;2.30;;;;;;;;;;5132567;27;20446;-72
2022/04/11 12:16:06;;;;;;;4.77;2.20;;;;;;;;;;5133553;27;20455;-72
2022/04/11 12:18:47;;;;;;;5.43;2.20;;;;;;;;;;5133560;27;20447;-72
2022/04/11 12:21:14;;;;;;;3.80;1.90;;;;;;;;;;5132504;27;21021;-72
2022/04/11 12:23:45;;;;;;;2.57;2.37;;;;;;;;;;5133454;27;20450;-72
2022/04/11 12:26:13;;;;;;;2.37;2.17;;;;;;;;;;5133017;27;20466;-72
2022/04/11 12:28:40;;;;;;;2.00;1.80;;;;;;;;;;5133479;27;20465;-72
2022/04/11 12:31:12;;;;;;;2.40;2.20;;;;;;;;;;5132484;27;20478;-72
2022/04/11 12:33:40;;;;;;;2.30;2.10;;;;;;;;;;5132296;27;20545;-72
2022/04/11 12:36:11;;;;;;;3.50;2.20;;;;;;;;;;5132599;27;20499;-72
2022/04/11 12:38:54;;;;;;;4.73;2.40;;;;;;;;;;5119243;27;20451;-73
2022/04/11 12:41:29;;;;;;;2.43;2.20;;;;;;;;;;5132421;27;20449;-72
2022/04/11 12:44:07;;;;;;;3.47;2.20;;;;;;;;;;5133194;27;20629;-71
2022/04/11 12:46:36;;;;;;;2.70;2.13;;;;;;;;;;5132969;27;20981;-72
2022/04/11 12:49:04;;;;;;;2.43;2.07;;;;;;;;;;5132929;27;20454;-72
2022/04/11 12:51:31;;;;;;;2.53;2.27;;;;;;;;;;5132612;27;20450;-73
2022/04/11 12:54:03;;;;;;;3.07;2.77;;;;;;;;;;5132702;27;20449;-73
2022/04/11 12:56:34;;;;;;;4.53;1.87;;;;;;;;;;5132978;27;20434;-71
2022/04/11 12:59:01;;;;;;;2.63;2.17;;;;;;;;;;5133127;27;20586;-72
2022/04/11 13:01:43;;;;;;;2.50;2.30;;;;;;;;;;5131954;27;20480;-72
2022/04/11 13:04:12;;;;;;;3.50;2.03;;;;;;;;;;5123386;27;20533;-73
2022/04/11 13:06:39;;;;;;;4.40;2.40;;;;;;;;;;5132291;27;21004;-72
2022/04/11 13:09:06;;;;;;;3.10;1.77;;;;;;;;;;5131538;27;20480;-72
2022/04/11 13:11:40;;;;;;;2.40;2.20;;;;;;;;;;5132455;27;20449;-73
2022/04/11 13:14:08;;;;;;;2.97;2.40;;;;;;;;;;5132069;27;20470;-72
2022/04/11 13:19:21;;;;;;;3.70;2.37;;;;;;;;;;5131828;27;20418;-73
2022/04/11 13:21:48;;;;;;;2.23;2.03;;;;;;;;;;5132120;27;20474;-72
2022/04/11 13:24:15;;;;;;;4.10;2.43;;;;;;;;;;5130753;27;20945;-73
2022/04/11 13:26:43;;;;;;;3.67;2.40;;;;;;;;;;5132336;27;20818;-73
2022/04/11 13:29:10;;;;;;;2.50;2.30;;;;;;;;;;5131634;27;20533;-72
2022/04/11 13:31:37;;;;;;;4.27;2.93;;;;;;;;;;5131404;27;20447;-72
2022/04/11 13:34:04;;;;;;;3.33;3.03;;;;;;;;;;5130368;27;20538;-73
2022/04/11 13:36:33;;;;;;;3.87;2.10;;;;;;;;;;5129822;27;20450;-72
2022/04/11 13:39:00;;;;;;;5.97;2.80;;;;;;;;;;5120823;27;20518;-72
2022/04/11 13:41:28;;;;;;;4.40;3.03;;;;;;;;;;5130788;27;20446;-72
2022/04/11 13:43:55;;;;;;;2.50;2.30;;;;;;;;;;5132065;27;20451;-73
2022/04/11 13:46:22;;;;;;;3.03;2.50;;;;;;;;;;5131268;27;20450;-72
2022/04/11 13:48:50;;;;;;;3.57;2.40;;;;;;;;;;5132131;27;20482;-72
2022/04/11 13:51:17;;;;;;;2.80;2.13;;;;;;;;;;5130961;27;20562;-72
2022/04/11 13:53:46;;;;;;;3.40;3.07;;;;;;;;;;5131558;27;20453;-72
2022/04/11 13:56:13;;;;;;;6.40;3.10;;;;;;;;;;5131326;27;20481;-72
2022/04/11 13:58:40;;;;;;;3.63;2.70;;;;;;;;;;5131969;27;20533;-73
2022/04/11 14:01:07;;;;;;;3.33;2.13;;;;;;;;;;5130797;27;20446;-73
2022/04/11 14:03:35;;;;;;;4.83;2.90;;;;;;;;;;5126766;27;20935;-72
2022/04/11 14:06:03;;;;;;;4.80;2.90;;;;;;;;;;5129487;28;20454;-72
2022/04/11 14:08:30;;;;;;;11.13;2.70;;;;;;;;;;5131561;27;20501;-73
2022/04/11 14:10:58;;;;;;;3.87;3.10;;;;;;;;;;5130887;27;20546;-73
2022/04/11 14:13:26;;;;;;;4.07;2.80;;;;;;;;;;5130865;27;20514;-73
2022/04/11 14:15:55;;;;;;;4.67;3.37;;;;;;;;;;5131333;27;20455;-74
2022/04/11 14:18:22;;;;;;;4.07;3.20;;;;;;;;;;5131151;27;20477;-73
2022/04/11 14:20:49;;;;;;;3.67;2.97;;;;;;;;;;5131193;27;20443;-73
2022/04/11 14:23:18;;;;;;;3.97;2.60;;;;;;;;;;5131200;27;20847;-73
2022/04/11 14:25:46;;;;;;;5.10;3.00;;;;;;;;;;5131494;27;20454;-73
2022/04/11 14:28:14;;;;;;;2.30;2.10;;;;;;;;;;5131036;27;20486;-73
2022/04/11 14:30:42;;;;;;;3.40;2.10;;;;;;;;;;5104259;28;20822;-71
2022/04/11 14:33:10;;;;;;;3.60;2.40;;;;;;;;;;5130111;27;20439;-71
2022/04/11 14:35:38;;;;;;;2.50;2.30;;;;;;;;;;5132931;27;20529;-72
2022/04/11 14:38:05;;;;;;;2.87;2.57;;;;;;;;;;5121246;27;20448;-72
2022/04/11 14:40:32;;;;;;;3.10;2.50;;;;;;;;;;5134814;27;20488;-72
2022/04/11 14:42:59;;;;;;;3.10;2.50;;;;;;;;;;5136109;27;20546;-72
2022/04/11 14:45:28;;;;;;;3.53;3.00;;;;;;;;;;5135608;27;20515;-72
2022/04/11 14:47:55;;;;;;;4.77;3.30;;;;;;;;;;5135774;27;21092;-72
2022/04/11 14:50:23;;;;;;;2.47;2.27;;;;;;;;;;5134743;27;20458;-72
2022/04/11 14:52:50;;;;;;;4.47;2.83;;;;;;;;;;5135539;27;20533;-72